HRGA4: Little River, Horatio, AR

                                SHEF ID:       HRGA4     Little River near Horatio, AR
STATION TYPE: Stream Gauge
Regulating: Stage = 21.50, Flow = 17539

PRECIP STAGE RIV-FLOW BAT-LOAD
in ft cfs volt
Ccp-Rev Ccp-Rev Ccp-Rev Ccp-Rev
(America/Chicago)
07/11 00:00 0.00 5.77 1000 12.54
07/11 01:00 0.00 5.71 965 12.53
07/11 02:00 0.00 5.65 931 12.50
07/11 03:00 0.00 5.60 902 12.48
07/11 04:00 0.00 5.56 880 12.47
07/11 05:00 0.00 5.59 897 12.46
07/11 06:00 0.00 5.77 1000 12.44
07/11 07:00 0.00 6.05 1168 12.44
07/11 08:00 0.00 6.30 1325 12.50
07/11 09:00 0.00 6.48 1442 12.96
07/11 10:00 0.00 6.57 1502 13.06
07/11 11:00 0.00 6.61 1528 13.16
07/11 12:00 0.00 6.59 1515 13.02
07/11 13:00 0.00 6.56 1495 12.89
07/11 14:00 0.00 6.54 1482 12.84
07/11 15:00 0.00 6.46 1429 12.80
07/11 16:00 0.00 6.36 1364 12.74
07/11 17:00 0.00 6.28 1313 12.75
07/11 18:00 0.00 6.20 1262 12.73
07/11 19:00 0.00 6.10 1199 12.72
07/11 20:00 0.00 5.98 1126 12.71
07/11 21:00 0.00 5.92 1089 12.65
07/11 22:00 0.00 5.84 1042 12.57
07/11 23:00 0.00 5.77 1000 12.56
Data processed at Sun 12Jul2026 04:10 GMT

NOTICE: If you are parsing this page

Please convert to using our Data API. Starting early 2026 we will be migrating to: https://water.usace.army.mil with modern pages rendered in JavaScript. When this migration completes you will no longer be able to scrape this page! CWMSDataAPI (CDA)

Timeseries IDs (TSIDs)

TSIDs used from left to right in the data table
HORA.Precip-Inc.Total.1Hour.1Hour.Ccp-Rev
HORA.Stage.Inst.1Hour.0.Ccp-Rev
HORA.Flow.Inst.1Hour.0.Ccp-Rev
HORA.Volt-Battery Load.Inst.1Hour.0.Ccp-Rev

                            

All information presented herein is the property of the government of the United States of America and may be revised or deleted at any time without prior notice. Dissemination of this information without the expressed written consent of the Public Affairs Office, Tulsa District U.S. Army Corps of Engineers is strictly prohibited. These data are gathered electronically and, as presented, have NOT undergone any form of quality control. These data are NOT guaranteed to be valid or correct.